createdAt,value
2022-07-30T00:00:35.787Z,15.80
2022-07-30T00:03:03.963Z,15.80
2022-07-30T00:05:33.498Z,15.70
2022-07-30T00:08:01.651Z,15.80
2022-07-30T00:10:29.926Z,15.90
2022-07-30T00:12:58.298Z,15.90
2022-07-30T00:15:26.645Z,15.90
2022-07-30T00:17:54.914Z,15.90
2022-07-30T00:20:23.295Z,15.90
2022-07-30T00:22:57.921Z,15.90
2022-07-30T00:25:26.209Z,15.90
2022-07-30T00:27:54.436Z,15.90
2022-07-30T00:30:23.027Z,15.90
2022-07-30T00:32:51.290Z,15.90
2022-07-30T00:35:19.654Z,15.90
2022-07-30T00:37:47.784Z,15.90
2022-07-30T00:40:17.362Z,15.90
2022-07-30T00:42:47.315Z,15.90
2022-07-30T00:45:18.201Z,15.90
2022-07-30T00:47:47.207Z,15.90
2022-07-30T00:50:16.506Z,15.90
2022-07-30T00:52:45.377Z,15.90
2022-07-30T00:55:15.845Z,15.90
2022-07-30T00:57:46.189Z,15.90
2022-07-30T01:00:17.531Z,15.90
2022-07-30T01:02:45.982Z,15.80
2022-07-30T01:05:14.737Z,15.80
2022-07-30T01:07:43.395Z,15.80
2022-07-30T01:10:13.819Z,15.70
2022-07-30T01:12:42.997Z,15.70
2022-07-30T01:15:13.414Z,15.70
2022-07-30T01:17:41.671Z,15.70
2022-07-30T01:20:14.473Z,15.70
2022-07-30T01:22:53.415Z,15.70
2022-07-30T01:25:31.482Z,15.60
2022-07-30T01:28:04.366Z,15.60
2022-07-30T01:30:35.530Z,15.60
2022-07-30T01:33:05.690Z,15.50
2022-07-30T01:35:35.511Z,15.40
2022-07-30T01:38:06.164Z,15.40
2022-07-30T01:40:36.092Z,15.40
2022-07-30T01:43:07.586Z,15.40
2022-07-30T01:45:43.964Z,15.40
2022-07-30T01:48:16.169Z,15.30
2022-07-30T01:50:46.823Z,15.30
2022-07-30T01:53:17.961Z,15.30
2022-07-30T01:55:47.682Z,15.30
2022-07-30T01:58:21.892Z,15.30
2022-07-30T02:00:58.391Z,15.30
2022-07-30T02:03:29.749Z,15.30
2022-07-30T02:06:02.531Z,15.30
2022-07-30T02:08:39.491Z,15.30
2022-07-30T02:11:10.404Z,15.30
2022-07-30T02:13:46.255Z,15.20
2022-07-30T02:16:19.088Z,15.20
2022-07-30T02:18:58.544Z,15.20
2022-07-30T02:21:36.349Z,15.20
2022-07-30T02:24:09.157Z,15.30
2022-07-30T02:26:39.318Z,15.20
2022-07-30T02:29:11.655Z,15.30
2022-07-30T02:31:42.741Z,15.30
2022-07-30T02:34:14.316Z,15.30
2022-07-30T02:36:44.004Z,15.30
2022-07-30T02:39:15.474Z,15.30
2022-07-30T02:41:49.713Z,15.30
2022-07-30T02:44:21.297Z,15.30
2022-07-30T02:46:51.278Z,15.30
2022-07-30T02:49:32.598Z,15.30
2022-07-30T02:52:02.715Z,15.30
2022-07-30T02:54:33.532Z,15.30
2022-07-30T02:57:03.617Z,15.30
2022-07-30T02:59:36.508Z,15.30
2022-07-30T03:02:05.827Z,15.20
2022-07-30T03:04:34.951Z,15.20
2022-07-30T03:07:08.134Z,15.20
2022-07-30T03:09:52.492Z,15.20
2022-07-30T03:12:22.827Z,15.20
2022-07-30T03:14:54.473Z,15.20
2022-07-30T03:17:25.624Z,15.20
2022-07-30T03:19:56.297Z,15.10
2022-07-30T03:22:31.215Z,15.20
2022-07-30T03:25:03.442Z,15.10
2022-07-30T03:27:33.075Z,15.10
2022-07-30T03:30:03.567Z,15.10
2022-07-30T03:32:32.687Z,15.10
2022-07-30T03:35:06.194Z,15.10
2022-07-30T03:37:37.376Z,15.10
2022-07-30T03:40:08.183Z,15.10
2022-07-30T03:42:37.642Z,15.00
2022-07-30T03:45:10.087Z,15.10
2022-07-30T03:47:41.675Z,15.00
2022-07-30T03:50:12.425Z,15.10
2022-07-30T03:52:42.398Z,15.00
2022-07-30T03:55:16.041Z,15.00
2022-07-30T03:57:47.310Z,15.00
2022-07-30T04:00:18.323Z,15.00
2022-07-30T04:02:51.429Z,14.90
2022-07-30T04:05:37.561Z,15.00
2022-07-30T04:08:10.129Z,15.00
2022-07-30T04:10:39.597Z,15.00
2022-07-30T04:13:26.207Z,15.00
2022-07-30T04:16:37.539Z,15.00
2022-07-30T04:18:52.609Z,15.00
2022-07-30T04:21:23.999Z,15.10
2022-07-30T04:24:04.593Z,15.10
2022-07-30T04:26:36.168Z,15.10
2022-07-30T04:29:08.590Z,15.10
2022-07-30T04:31:41.207Z,15.10
2022-07-30T04:34:29.805Z,15.10
2022-07-30T04:36:58.255Z,15.10
2022-07-30T04:39:26.674Z,15.10
2022-07-30T04:41:55.590Z,15.10
2022-07-30T04:44:36.409Z,15.10
2022-07-30T04:47:28.728Z,15.10
2022-07-30T04:50:17.857Z,15.10
2022-07-30T04:52:48.254Z,15.20
2022-07-30T04:55:23.503Z,15.10
2022-07-30T04:57:54.519Z,15.20
2022-07-30T05:00:23.843Z,15.10
2022-07-30T05:02:54.597Z,15.10
2022-07-30T05:05:24.968Z,15.10
2022-07-30T05:07:55.550Z,15.10
2022-07-30T05:10:24.339Z,15.10
2022-07-30T05:12:53.216Z,15.10
2022-07-30T05:15:23.390Z,15.10
2022-07-30T05:18:06.898Z,15.10
2022-07-30T05:20:38.096Z,15.10
2022-07-30T05:23:12.907Z,15.10
2022-07-30T05:25:43.812Z,15.10
2022-07-30T05:28:29.284Z,15.20
2022-07-30T05:31:00.612Z,15.10
2022-07-30T05:33:42.600Z,15.10
2022-07-30T05:36:16.403Z,15.20
2022-07-30T05:38:44.637Z,15.20
2022-07-30T05:41:33.444Z,15.20
2022-07-30T05:44:21.997Z,15.30
2022-07-30T05:46:52.210Z,15.40
2022-07-30T05:49:22.002Z,15.40
2022-07-30T05:51:50.869Z,15.40
2022-07-30T05:54:19.646Z,15.40
2022-07-30T05:57:13.241Z,15.40
2022-07-30T05:59:41.978Z,15.40
2022-07-30T06:02:11.248Z,15.40
2022-07-30T06:04:55.820Z,15.40
2022-07-30T06:07:25.077Z,15.40
2022-07-30T06:10:00.116Z,15.40
2022-07-30T06:12:29.351Z,15.50
2022-07-30T06:14:58.415Z,15.50
2022-07-30T06:17:39.755Z,15.60
2022-07-30T06:20:21.867Z,15.60
2022-07-30T06:23:09.177Z,15.70
2022-07-30T06:26:15.516Z,15.80
2022-07-30T06:28:44.520Z,16.00
2022-07-30T06:31:20.596Z,16.00
2022-07-30T06:33:48.957Z,16.10
2022-07-30T06:36:18.781Z,16.10
2022-07-30T06:38:56.910Z,16.10
2022-07-30T06:41:38.255Z,16.10
2022-07-30T06:44:06.438Z,16.10
2022-07-30T06:47:08.267Z,16.00
2022-07-30T06:49:39.183Z,16.00
2022-07-30T06:52:15.644Z,16.00
2022-07-30T06:54:49.630Z,16.00
2022-07-30T06:57:29.294Z,15.90
2022-07-30T06:59:59.217Z,15.90
2022-07-30T07:02:32.732Z,15.90
2022-07-30T07:05:10.959Z,15.80
2022-07-30T07:07:49.096Z,15.70
2022-07-30T07:10:27.263Z,15.70
2022-07-30T07:13:14.794Z,15.70
2022-07-30T07:15:43.203Z,15.60
2022-07-30T07:18:17.114Z,15.70
2022-07-30T07:20:55.631Z,15.70
2022-07-30T07:23:25.587Z,15.70
2022-07-30T07:26:12.386Z,15.70
2022-07-30T07:28:41.490Z,15.70
2022-07-30T07:31:10.373Z,15.70
2022-07-30T07:33:40.572Z,15.80
2022-07-30T07:36:08.982Z,15.80
2022-07-30T07:38:38.535Z,15.80
2022-07-30T07:41:06.766Z,15.90
2022-07-30T07:43:35.922Z,15.90
2022-07-30T07:46:04.433Z,16.00
2022-07-30T07:48:35.029Z,16.10
2022-07-30T07:51:48.159Z,16.10
2022-07-30T07:54:22.877Z,16.20
2022-07-30T07:56:57.409Z,16.20
2022-07-30T07:59:36.128Z,16.30
2022-07-30T08:02:11.050Z,16.40
2022-07-30T08:04:57.715Z,16.30
2022-07-30T08:07:45.385Z,16.40
2022-07-30T08:10:41.207Z,16.40
2022-07-30T08:13:48.497Z,16.50
2022-07-30T08:16:35.063Z,16.60
2022-07-30T08:19:34.306Z,16.70
2022-07-30T08:22:13.890Z,16.90
2022-07-30T08:24:42.219Z,17.00
2022-07-30T08:27:11.929Z,17.20
2022-07-30T08:29:40.093Z,17.30
2022-07-30T08:32:08.420Z,17.60
2022-07-30T08:34:39.461Z,17.70
2022-07-30T08:37:09.881Z,17.90
2022-07-30T08:39:38.584Z,18.00
2022-07-30T08:42:07.662Z,18.00
2022-07-30T08:44:37.788Z,18.00
2022-07-30T08:47:08.767Z,18.10
2022-07-30T08:50:16.893Z,18.10
2022-07-30T08:53:04.510Z,17.90
2022-07-30T08:55:33.531Z,17.70
2022-07-30T08:58:03.153Z,17.60
2022-07-30T09:00:33.748Z,17.50
2022-07-30T09:03:02.685Z,17.50
2022-07-30T09:05:33.230Z,17.60
2022-07-30T09:08:03.279Z,17.60
2022-07-30T09:10:34.442Z,17.40
2022-07-30T09:13:03.186Z,17.50
2022-07-30T09:15:33.728Z,17.50
2022-07-30T09:18:04.068Z,17.50
2022-07-30T09:20:37.579Z,17.40
2022-07-30T09:23:09.695Z,17.30
2022-07-30T09:26:01.073Z,17.30
2022-07-30T09:28:47.452Z,17.20
2022-07-30T09:31:17.981Z,17.10
2022-07-30T09:34:26.081Z,17.10
2022-07-30T09:37:20.440Z,17.00
2022-07-30T09:40:13.985Z,16.90
2022-07-30T09:43:23.324Z,16.80
2022-07-30T09:46:00.688Z,16.80
2022-07-30T09:48:30.841Z,16.60
2022-07-30T09:50:59.043Z,16.30
2022-07-30T09:53:28.297Z,16.00
2022-07-30T09:55:59.327Z,15.80
2022-07-30T09:58:39.523Z,15.60
2022-07-30T10:01:10.036Z,15.40
2022-07-30T10:04:02.684Z,15.30
2022-07-30T10:06:51.548Z,15.40
2022-07-30T10:09:45.319Z,15.20
2022-07-30T10:12:16.788Z,15.20
2022-07-30T10:14:50.684Z,15.10
2022-07-30T10:17:21.502Z,15.10
2022-07-30T10:20:19.049Z,15.00
2022-07-30T10:23:08.772Z,15.00
2022-07-30T10:25:49.091Z,15.00
2022-07-30T10:28:52.050Z,15.00
2022-07-30T10:31:48.639Z,15.00
2022-07-30T10:34:09.123Z,15.00
2022-07-30T10:36:44.305Z,14.90
2022-07-30T10:39:16.999Z,14.90
2022-07-30T10:41:56.989Z,14.90
2022-07-30T10:44:42.427Z,14.80
2022-07-30T10:47:14.122Z,14.80
2022-07-30T10:49:43.381Z,14.90
2022-07-30T10:52:13.021Z,14.90
2022-07-30T10:54:44.508Z,14.90
2022-07-30T10:57:31.729Z,15.00
2022-07-30T11:00:15.351Z,15.00
2022-07-30T11:03:15.167Z,15.10
2022-07-30T11:05:46.012Z,15.10
2022-07-30T11:08:36.332Z,15.00
2022-07-30T11:11:20.524Z,15.00
2022-07-30T11:13:54.989Z,15.00
2022-07-30T11:16:25.230Z,15.20
2022-07-30T11:22:27.050Z,15.40
2022-07-30T11:24:56.867Z,15.40
2022-07-30T11:27:37.472Z,15.40
2022-07-30T11:30:08.245Z,15.50
2022-07-30T11:32:36.904Z,15.40
2022-07-30T11:35:18.084Z,15.40
2022-07-30T11:38:02.061Z,15.50
2022-07-30T11:40:33.114Z,15.60
2022-07-30T11:43:19.524Z,15.60
2022-07-30T11:45:49.874Z,15.60
2022-07-30T11:48:19.960Z,15.80
2022-07-30T11:50:49.619Z,15.70
2022-07-30T11:53:20.802Z,15.80
2022-07-30T11:55:55.946Z,15.90
2022-07-30T11:58:26.694Z,16.00
2022-07-30T12:00:55.904Z,16.20
2022-07-30T12:03:26.465Z,16.50
2022-07-30T12:05:58.283Z,16.40
2022-07-30T12:08:35.581Z,16.50
2022-07-30T12:11:06.130Z,16.30
2022-07-30T12:13:43.427Z,16.30
2022-07-30T12:16:14.775Z,16.30
2022-07-30T12:18:43.225Z,16.20
2022-07-30T12:21:13.651Z,16.10
2022-07-30T12:23:43.396Z,16.10
2022-07-30T12:26:22.073Z,16.20
2022-07-30T12:28:50.627Z,16.60
2022-07-30T12:31:19.315Z,16.70
2022-07-30T12:33:47.599Z,16.60
2022-07-30T12:36:26.934Z,16.60
2022-07-30T12:38:56.734Z,16.70
2022-07-30T12:41:43.330Z,16.90
2022-07-30T12:44:11.777Z,16.90
2022-07-30T12:46:41.459Z,16.90
2022-07-30T12:49:22.635Z,16.90
2022-07-30T12:52:00.105Z,17.00
2022-07-30T12:54:29.995Z,17.10
2022-07-30T12:57:01.928Z,17.30
2022-07-30T12:59:31.322Z,17.40
2022-07-30T13:02:00.727Z,17.30
2022-07-30T13:04:29.749Z,17.40
2022-07-30T13:07:09.527Z,17.40
2022-07-30T13:09:38.084Z,17.50
2022-07-30T13:12:12.722Z,17.60
2022-07-30T13:14:40.909Z,17.80
2022-07-30T13:17:09.814Z,17.90
2022-07-30T13:19:38.571Z,18.10
2022-07-30T13:22:06.663Z,18.30
2022-07-30T13:24:35.155Z,18.30
2022-07-30T13:27:03.682Z,18.20
2022-07-30T13:29:33.380Z,18.20
2022-07-30T13:32:01.498Z,18.20
2022-07-30T13:34:29.890Z,18.20
2022-07-30T13:36:57.974Z,18.30
2022-07-30T13:39:26.098Z,18.50
2022-07-30T13:41:54.725Z,18.60
2022-07-30T13:44:22.874Z,18.70
2022-07-30T13:46:52.388Z,18.70
2022-07-30T13:49:20.840Z,18.90
2022-07-30T13:51:49.066Z,19.00
2022-07-30T13:54:17.378Z,19.10
2022-07-30T13:56:45.491Z,19.10
2022-07-30T13:59:13.647Z,19.00
2022-07-30T14:01:41.870Z,18.90
2022-07-30T14:04:11.428Z,18.90
2022-07-30T14:06:39.630Z,18.90
2022-07-30T14:09:08.019Z,18.90
2022-07-30T14:11:36.302Z,18.80
2022-07-30T14:14:04.616Z,18.80
2022-07-30T14:16:45.213Z,18.90
2022-07-30T14:19:23.190Z,19.10
2022-07-30T14:21:54.058Z,19.40
2022-07-30T14:24:22.635Z,19.50
2022-07-30T14:26:57.305Z,19.70
2022-07-30T14:29:26.251Z,19.80
2022-07-30T14:31:54.413Z,19.70
2022-07-30T14:34:24.262Z,19.80
2022-07-30T14:36:52.856Z,19.90
2022-07-30T14:39:23.719Z,20.20
2022-07-30T14:41:55.771Z,20.50
2022-07-30T14:44:24.656Z,20.80
2022-07-30T14:46:53.229Z,21.10
2022-07-30T14:49:24.068Z,21.20
2022-07-30T14:51:52.724Z,21.20
2022-07-30T14:54:20.935Z,21.40
2022-07-30T14:56:49.081Z,21.60
2022-07-30T14:59:17.260Z,21.80
2022-07-30T15:01:47.197Z,22.00
2022-07-30T15:04:15.546Z,22.50
2022-07-30T15:06:45.125Z,22.50
2022-07-30T15:09:13.497Z,22.60
2022-07-30T15:12:07.783Z,22.70
2022-07-30T15:14:29.908Z,22.80
2022-07-30T15:17:03.560Z,22.50
2022-07-30T15:19:32.382Z,22.40
2022-07-30T15:22:04.877Z,22.00
2022-07-30T15:24:33.433Z,21.90
2022-07-30T15:27:01.584Z,21.40
2022-07-30T15:29:30.272Z,21.20
2022-07-30T15:32:00.253Z,20.90
2022-07-30T15:37:03.902Z,20.60
2022-07-30T15:39:33.986Z,20.40
2022-07-30T15:42:03.397Z,20.10
2022-07-30T15:44:32.443Z,20.00
2022-07-30T15:47:01.193Z,20.00
2022-07-30T15:49:30.572Z,19.80
2022-07-30T15:52:00.687Z,19.70
2022-07-30T15:54:30.431Z,19.70
2022-07-30T15:57:00.801Z,19.80
2022-07-30T15:59:29.752Z,19.70
2022-07-30T16:01:58.069Z,19.80
2022-07-30T16:04:31.623Z,19.60
2022-07-30T16:07:00.728Z,19.60
2022-07-30T16:09:30.455Z,19.70
2022-07-30T16:11:58.995Z,19.70
2022-07-30T16:14:27.550Z,19.70
2022-07-30T16:16:55.785Z,19.70
2022-07-30T16:19:24.030Z,19.50
2022-07-30T16:21:52.295Z,19.50
2022-07-30T16:24:20.519Z,19.30
2022-07-30T16:26:50.738Z,19.20
2022-07-30T16:29:19.207Z,19.00
2022-07-30T16:31:47.683Z,19.10
2022-07-30T16:34:16.878Z,19.00
2022-07-30T16:36:45.158Z,19.00
2022-07-30T16:39:13.247Z,18.90
2022-07-30T16:41:41.624Z,18.80
2022-07-30T16:44:11.101Z,18.70
2022-07-30T16:46:39.482Z,18.60
2022-07-30T16:49:08.199Z,18.40
2022-07-30T16:51:36.419Z,18.30
2022-07-30T16:54:05.691Z,18.30
2022-07-30T16:56:33.771Z,18.30
2022-07-30T16:59:01.861Z,18.30
2022-07-30T17:01:32.266Z,18.20
2022-07-30T17:04:00.385Z,18.20
2022-07-30T17:06:28.496Z,18.10
2022-07-30T17:08:56.647Z,18.10
2022-07-30T17:11:52.032Z,18.00
2022-07-30T17:14:13.324Z,18.00
2022-07-30T17:16:42.971Z,17.90
2022-07-30T17:19:11.078Z,17.90
2022-07-30T17:21:39.261Z,17.80
2022-07-30T17:24:11.450Z,17.70
2022-07-30T17:26:41.795Z,17.70
2022-07-30T17:29:13.947Z,17.70
2022-07-30T17:31:45.140Z,17.60
2022-07-30T17:34:14.721Z,17.60
2022-07-30T17:36:52.449Z,17.50
2022-07-30T17:40:27.824Z,17.50
2022-07-30T17:42:10.471Z,17.40
2022-07-30T17:44:39.485Z,17.30
2022-07-30T17:47:15.246Z,17.30
2022-07-30T17:49:44.898Z,17.30
2022-07-30T17:52:13.205Z,17.30
2022-07-30T17:54:41.466Z,17.20
2022-07-30T17:57:11.041Z,17.20
2022-07-30T17:59:39.230Z,17.10
2022-07-30T18:02:08.822Z,17.10
2022-07-30T18:04:37.131Z,17.10
2022-07-30T18:07:05.714Z,17.00
2022-07-30T18:09:36.227Z,16.90
2022-07-30T18:12:08.916Z,16.90
2022-07-30T18:14:37.437Z,16.90
2022-07-30T18:17:05.754Z,16.80
2022-07-30T18:19:35.370Z,16.80
2022-07-30T18:22:05.553Z,16.70
2022-07-30T18:24:40.283Z,16.60
2022-07-30T18:27:12.832Z,16.50
2022-07-30T18:29:41.049Z,16.40
2022-07-30T18:32:09.537Z,16.20
2022-07-30T18:34:39.070Z,16.00
2022-07-30T18:37:07.281Z,15.90
2022-07-30T18:39:35.444Z,15.80
2022-07-30T18:42:04.798Z,15.70
2022-07-30T18:44:33.313Z,15.60
2022-07-30T18:47:01.500Z,15.50
2022-07-30T18:49:37.910Z,15.50
2022-07-30T18:52:08.904Z,15.40
2022-07-30T18:54:38.330Z,15.40
2022-07-30T18:57:09.081Z,15.30
2022-07-30T18:59:40.897Z,15.30
2022-07-30T19:02:09.689Z,15.20
2022-07-30T19:04:37.960Z,15.20
2022-07-30T19:07:07.593Z,15.10
2022-07-30T19:09:35.910Z,15.10
2022-07-30T19:12:04.415Z,15.00
2022-07-30T19:14:32.895Z,15.00
2022-07-30T19:17:01.064Z,14.90
2022-07-30T19:19:30.647Z,14.80
2022-07-30T19:21:59.503Z,14.70
2022-07-30T19:24:29.215Z,14.60
2022-07-30T19:26:58.407Z,14.50
2022-07-30T19:29:26.533Z,14.40
2022-07-30T19:31:55.166Z,14.30
2022-07-30T19:34:23.350Z,14.20
2022-07-30T19:36:51.532Z,14.10
2022-07-30T19:39:21.520Z,14.10
2022-07-30T19:41:51.838Z,14.00
2022-07-30T19:44:20.240Z,13.90
2022-07-30T19:46:51.539Z,13.80
2022-07-30T19:49:20.086Z,13.80
2022-07-30T19:52:17.393Z,13.80
2022-07-30T19:54:38.742Z,13.80
2022-07-30T19:57:08.248Z,13.70
2022-07-30T19:59:45.532Z,13.70
2022-07-30T20:02:24.479Z,13.70
2022-07-30T20:04:54.885Z,13.60
2022-07-30T20:07:27.488Z,13.60
2022-07-30T20:09:55.915Z,13.50
2022-07-30T20:12:25.737Z,13.40
2022-07-30T20:14:54.711Z,13.30
2022-07-30T20:17:23.898Z,13.30
2022-07-30T20:19:59.365Z,13.20
2022-07-30T20:22:27.881Z,13.10
2022-07-30T20:24:56.629Z,13.10
2022-07-30T20:27:37.173Z,13.00
2022-07-30T20:30:08.943Z,13.00
2022-07-30T20:32:37.201Z,13.00
2022-07-30T20:35:07.633Z,12.90
2022-07-30T20:37:54.604Z,12.80
2022-07-30T20:40:24.593Z,12.90
2022-07-30T20:42:56.365Z,12.80
2022-07-30T20:45:25.342Z,12.80
2022-07-30T20:48:08.470Z,12.80
2022-07-30T20:50:46.172Z,12.70
2022-07-30T20:53:17.438Z,12.60
2022-07-30T20:55:45.539Z,12.60
2022-07-30T20:58:17.584Z,12.50
2022-07-30T21:00:49.572Z,12.50
2022-07-30T21:03:21.519Z,12.40
2022-07-30T21:05:51.145Z,12.40
2022-07-30T21:08:20.586Z,12.30
2022-07-30T21:10:49.261Z,12.30
2022-07-30T21:13:18.725Z,12.20
2022-07-30T21:16:01.954Z,12.20
2022-07-30T21:18:31.557Z,12.20
2022-07-30T21:21:01.015Z,12.20
2022-07-30T21:23:33.252Z,12.30
2022-07-30T21:26:05.970Z,12.20
2022-07-30T21:28:40.350Z,12.20
2022-07-30T21:31:09.242Z,12.20
2022-07-30T21:33:37.578Z,12.20
2022-07-30T21:36:10.397Z,12.10
2022-07-30T21:38:41.929Z,12.10
2022-07-30T21:41:14.181Z,12.10
2022-07-30T21:43:44.922Z,12.10
2022-07-30T21:46:14.035Z,12.00
2022-07-30T21:48:43.425Z,12.00
2022-07-30T21:51:12.043Z,12.00
2022-07-30T21:53:46.035Z,11.90
2022-07-30T21:56:16.212Z,11.90
2022-07-30T21:58:46.154Z,11.80
2022-07-30T22:01:21.837Z,11.70
2022-07-30T22:04:03.333Z,11.70
2022-07-30T22:06:36.626Z,11.60
2022-07-30T22:09:18.654Z,11.60
2022-07-30T22:11:56.473Z,11.60
2022-07-30T22:14:26.059Z,11.60
2022-07-30T22:16:54.619Z,11.60
2022-07-30T22:19:22.838Z,11.60
2022-07-30T22:21:51.403Z,11.60
2022-07-30T22:24:29.555Z,11.60
2022-07-30T22:27:01.406Z,11.60
2022-07-30T22:29:34.310Z,11.60
2022-07-30T22:32:04.573Z,11.70
2022-07-30T22:34:33.138Z,11.70
2022-07-30T22:37:01.961Z,11.60
2022-07-30T22:39:31.779Z,11.70
2022-07-30T22:42:18.579Z,11.60
2022-07-30T22:44:48.651Z,11.60
2022-07-30T22:47:21.728Z,11.70
2022-07-30T22:50:06.323Z,11.70
2022-07-30T22:52:38.695Z,11.70
2022-07-30T22:55:10.210Z,11.80
2022-07-30T22:57:40.298Z,11.70
2022-07-30T23:00:13.748Z,11.70
2022-07-30T23:02:43.035Z,11.70
2022-07-30T23:05:11.987Z,11.60
2022-07-30T23:07:40.802Z,11.60
2022-07-30T23:10:17.943Z,11.60
2022-07-30T23:12:48.723Z,11.60
2022-07-30T23:15:18.722Z,11.60
2022-07-30T23:17:46.897Z,11.50
2022-07-30T23:20:17.074Z,11.50
2022-07-30T23:22:45.473Z,11.50
2022-07-30T23:25:14.604Z,11.50
2022-07-30T23:27:43.763Z,11.50
2022-07-30T23:30:12.971Z,11.50
2022-07-30T23:32:43.184Z,11.40
2022-07-30T23:35:12.375Z,11.40
2022-07-30T23:37:48.253Z,11.40
2022-07-30T23:40:18.527Z,11.40
2022-07-30T23:42:47.017Z,11.40
2022-07-30T23:45:15.280Z,11.40
2022-07-30T23:48:01.604Z,11.30
2022-07-30T23:50:31.926Z,11.40
2022-07-30T23:53:00.479Z,11.50
2022-07-30T23:55:28.741Z,11.40
2022-07-30T23:57:57.041Z,11.40
